To NAV CANADA Home Page Login to a new session Search on AWWS site Feedback and Comments Disclaimer Vers la page française équivalente Tips FAQ What's new on the site To the Forecasts and Observations / NOTAM section To "File a Flight Plan" website Publications and other links Update of the User's profile FIC Telephone Numbers My Weather Data Folder Route Weather Data Regional Weather Data Local Weather Data To the Forecasts and Observations / NOTAM section
Request Generated 03/23/2017 at 00:07:53 UTC . Weather information available at that time is displayed.

METAR/TAF

KELOWNA/BC    (show WxCam)

SPECI CYLW 230004Z AUTO 21005KT 9SM -RA OVC034 10/04 A2979 RMK
SLP097=
METAR CYLW 230000Z AUTO 21009KT 170V230 9SM BKN034 10/04 A2979 RMK
SLP097=
SPECI CYLW 222354Z AUTO 19009KT 150V240 9SM BKN034 BKN046 10/04 A2978
RMK SLP095=
SPECI CYLW 222332Z AUTO 21009KT 9SM -RA FEW046 SCT065 BKN250 10/04
A2977 RMK SLP093=
METAR CYLW 222300Z AUTO 21010KT 9SM SCT036 BKN065 OVC240 10/04 A2976
RMK SLP090=
METAR CYLW 222200Z AUTO 19006KT 150V250 9SM FEW065 11/04 A2976 RMK
SLP088=

TAF CYLW 221838Z 2219/2307 19003KT P6SM SCT030 BKN050 TEMPO 2219/2304
P6SM -SHRA BKN030 OVC050
BECMG 2220/2222 19010KT
FM230400 16010KT P6SM SCT060 TEMPO 2304/2307 BKN060
RMK FCST BASED ON AUTO OBS. NXT FCST BY 230100Z=
Your time UTC time
Weather data provided by Environment Canada and NAV CANADA